Chantal — A8WQ3 — position and weather

sailwx.info

Track history (hours):
 
Tides and Currents Weather Stations Pressure Air Temp Water Temp Dewpoint Dewpoint Depression Visibility Wind Speed Wind Dir Waves Ship Positions

Chantal

Last reported at 2016-Nov-27 10:33 UTC. Time now 2016-Dec-04 03:52 UTC.
Position N 32°22' W 117°43'.

Length 228 m; draft 8.3 m.

Type: Tanker. MMSI: 636014805.

Date/timePositionNaut miles runAvg speedWind from/ knotsBaromVisibWave heightAir tempDewpointWater temp
2016-Nov-27 10:33N 32°22' W 117°43'1313.0
2016-Nov-27 09:33N 32°34' W 117°48'1312.8
2016-Nov-27 08:33N 32°44' W 117°57'1313.3
2016-Nov-27 07:33N 32°53' W 118°08'63 2.7
2016-Nov-26 08:24N 33°54' W 118°27'0 0.0
2016-Nov-26 07:33N 33°54' W 118°27'0 0.0
2016-Nov-26 06:33N 33°54' W 118°27'0 0.0
2016-Nov-26 05:30N 33°54' W 118°27'1 0.1
2016-Nov-25 17:34N 33°54' W 118°27'4 1.8
2016-Nov-25 15:22N 33°52' W 118°31'2 1.9
2016-Nov-25 14:33N 33°51' W 118°33'6 6.5
2016-Nov-25 13:33N 33°44' W 118°33'8 8.2
2016-Nov-25 12:34N 33°40' W 118°24'8 7.8
2016-Nov-25 11:33N 33°38' W 118°15'6 6.1
2016-Nov-25 10:33N 33°44' W 118°11'1 1.2
2016-Nov-25 09:32N 33°44' W 118°13'0 0.0
2016-Nov-25 08:32N 33°44' W 118°13'0 0.0
2016-Nov-25 07:32N 33°44' W 118°13'0 0.0
2016-Nov-25 06:32N 33°44' W 118°13'0 0.0
2016-Nov-25 05:26N 33°44' W 118°13'0 0.0
2016-Nov-25 04:32N 33°44' W 118°13'0 0.0
2016-Nov-25 03:32N 33°44' W 118°13'0 0.0
2016-Nov-25 02:32N 33°44' W 118°13'0 0.1
2016-Nov-25 01:32N 33°44' W 118°13'0 0.0
2016-Nov-25 00:32N 33°44' W 118°13'0 0.1
2016-Nov-24 23:32N 33°44' W 118°13'0 0.0
2016-Nov-24 22:29N 33°44' W 118°13'0 0.0
2016-Nov-24 21:20N 33°44' W 118°13'0 0.0
2016-Nov-24 20:32N 33°44' W 118°13'0 0.0
2016-Nov-24 19:29N 33°44' W 118°13'0 0.0
2016-Nov-24 18:32N 33°44' W 118°13'0 0.0
2016-Nov-24 17:32N 33°44' W 118°13'0 0.0
2016-Nov-24 16:32N 33°44' W 118°13'0 0.1
2016-Nov-24 15:32N 33°44' W 118°13'0 0.0
2016-Nov-24 14:32N 33°44' W 118°13'0 0.0
2016-Nov-24 13:32N 33°44' W 118°13'0 0.0
2016-Nov-24 12:32N 33°44' W 118°13'0 0.0
2016-Nov-24 11:32N 33°44' W 118°13'0 0.0
2016-Nov-24 10:32N 33°44' W 118°13'0 0.0
2016-Nov-24 09:32N 33°44' W 118°13'0 0.1
2016-Nov-24 08:32N 33°44' W 118°13'0 0.0
2016-Nov-24 07:29N 33°44' W 118°13'0 0.0
2016-Nov-24 06:32N 33°44' W 118°13'0 0.0
2016-Nov-24 05:29N 33°44' W 118°13'0 0.0
2016-Nov-24 04:32N 33°44' W 118°13'0 0.0
2016-Nov-24 03:29N 33°44' W 118°13'0 0.1
2016-Nov-24 02:32N 33°44' W 118°13'0 0.1
2016-Nov-24 01:26N 33°44' W 118°13'0 0.1
2016-Nov-24 00:32N 33°44' W 118°13'0 0.0
2016-Nov-23 23:29N 33°44' W 118°13'0 0.1
2016-Nov-23 22:32N 33°44' W 118°13'0 0.0
2016-Nov-23 21:17N 33°44' W 118°13'0 0.1
2016-Nov-23 20:32N 33°44' W 118°13'0 0.1
2016-Nov-23 19:29N 33°44' W 118°13'0 0.1
2016-Nov-23 18:32N 33°44' W 118°13'0 0.1
2016-Nov-23 17:29N 33°44' W 118°13'0 0.0
2016-Nov-23 16:17N 33°44' W 118°13'0 0.0
2016-Nov-23 15:23N 33°44' W 118°13'1 1.5
2016-Nov-23 14:23N 33°44' W 118°11'7 8.8
2016-Nov-23 13:33N 33°36' W 118°10'1010.3
2016-Nov-23 12:33N 33°27' W 118°06'1110.7
2016-Nov-23 11:33N 33°16' W 118°02'1110.9
2016-Nov-23 10:33N 33°06' W 117°58'1211.6
2016-Nov-23 09:33N 32°55' W 117°54'1211.7
2016-Nov-23 08:33N 32°44' W 117°50'1211.6
2016-Nov-23 07:33N 32°33' W 117°45'1111.5
2016-Nov-23 06:33N 32°22' W 117°41'  
2016-Nov-20 09:32N 31°58' W 117°45'1 0.3
2016-Nov-20 07:29N 31°57' W 117°46'0 0.3
2016-Nov-20 06:14N 31°57' W 117°46'0 0.2
2016-Nov-20 05:32N 31°57' W 117°46'0 0.1
2016-Nov-20 01:29N 31°57' W 117°46'0 0.2
2016-Nov-19 23:30N 31°57' W 117°46'0 0.3
2016-Nov-19 22:33N 31°57' W 117°47'4 0.3
2016-Nov-19 09:33N 31°55' W 117°51'1 0.4
2016-Nov-19 07:33N 31°55' W 117°51'2 0.4
2016-Nov-19 03:06N 31°55' W 117°54'0 0.6
2016-Nov-19 02:27N 31°55' W 117°54'0 0.5
2016-Nov-19 01:33N 31°55' W 117°55'0 0.4
2016-Nov-19 00:30N 31°55' W 117°55'0 0.5
2016-Nov-18 23:33N 31°55' W 117°56'5 1.8
2016-Nov-18 20:33N 31°52' W 117°50'  
Track history (hours):
 
Tides and Currents Weather Stations Pressure Air Temp Water Temp Dewpoint Dewpoint Depression Visibility Wind Speed Wind Dir Waves Ship Positions

Chantal

Last reported at 2016-Nov-27 10:33 UTC. Time now 2016-Dec-04 03:52 UTC.
Position N 32°22' W 117°43'.

Length 228 m; draft 8.3 m.

Type: Tanker. MMSI: 636014805.

Date/timePositionNaut miles runAvg speedWind from/ knotsBaromVisibWave heightAir tempDewpointWater temp
2016-Nov-27 10:33N 32°22' W 117°43'1313.0
2016-Nov-27 09:33N 32°34' W 117°48'1312.8
2016-Nov-27 08:33N 32°44' W 117°57'1313.3
2016-Nov-27 07:33N 32°53' W 118°08'63 2.7
2016-Nov-26 08:24N 33°54' W 118°27'0 0.0
2016-Nov-26 07:33N 33°54' W 118°27'0 0.0
2016-Nov-26 06:33N 33°54' W 118°27'0 0.0
2016-Nov-26 05:30N 33°54' W 118°27'1 0.1
2016-Nov-25 17:34N 33°54' W 118°27'4 1.8
2016-Nov-25 15:22N 33°52' W 118°31'2 1.9
2016-Nov-25 14:33N 33°51' W 118°33'6 6.5
2016-Nov-25 13:33N 33°44' W 118°33'8 8.2
2016-Nov-25 12:34N 33°40' W 118°24'8 7.8
2016-Nov-25 11:33N 33°38' W 118°15'6 6.1
2016-Nov-25 10:33N 33°44' W 118°11'1 1.2
2016-Nov-25 09:32N 33°44' W 118°13'0 0.0
2016-Nov-25 08:32N 33°44' W 118°13'0 0.0
2016-Nov-25 07:32N 33°44' W 118°13'0 0.0
2016-Nov-25 06:32N 33°44' W 118°13'0 0.0
2016-Nov-25 05:26N 33°44' W 118°13'0 0.0
2016-Nov-25 04:32N 33°44' W 118°13'0 0.0
2016-Nov-25 03:32N 33°44' W 118°13'0 0.0
2016-Nov-25 02:32N 33°44' W 118°13'0 0.1
2016-Nov-25 01:32N 33°44' W 118°13'0 0.0
2016-Nov-25 00:32N 33°44' W 118°13'0 0.1
2016-Nov-24 23:32N 33°44' W 118°13'0 0.0
2016-Nov-24 22:29N 33°44' W 118°13'0 0.0
2016-Nov-24 21:20N 33°44' W 118°13'0 0.0
2016-Nov-24 20:32N 33°44' W 118°13'0 0.0
2016-Nov-24 19:29N 33°44' W 118°13'0 0.0
2016-Nov-24 18:32N 33°44' W 118°13'0 0.0
2016-Nov-24 17:32N 33°44' W 118°13'0 0.0
2016-Nov-24 16:32N 33°44' W 118°13'0 0.1
2016-Nov-24 15:32N 33°44' W 118°13'0 0.0
2016-Nov-24 14:32N 33°44' W 118°13'0 0.0
2016-Nov-24 13:32N 33°44' W 118°13'0 0.0
2016-Nov-24 12:32N 33°44' W 118°13'0 0.0
2016-Nov-24 11:32N 33°44' W 118°13'0 0.0
2016-Nov-24 10:32N 33°44' W 118°13'0 0.0
2016-Nov-24 09:32N 33°44' W 118°13'0 0.1
2016-Nov-24 08:32N 33°44' W 118°13'0 0.0
2016-Nov-24 07:29N 33°44' W 118°13'0 0.0
2016-Nov-24 06:32N 33°44' W 118°13'0 0.0
2016-Nov-24 05:29N 33°44' W 118°13'0 0.0
2016-Nov-24 04:32N 33°44' W 118°13'0 0.0
2016-Nov-24 03:29N 33°44' W 118°13'0 0.1
2016-Nov-24 02:32N 33°44' W 118°13'0 0.1
2016-Nov-24 01:26N 33°44' W 118°13'0 0.1
2016-Nov-24 00:32N 33°44' W 118°13'0 0.0
2016-Nov-23 23:29N 33°44' W 118°13'0 0.1
2016-Nov-23 22:32N 33°44' W 118°13'0 0.0
2016-Nov-23 21:17N 33°44' W 118°13'0 0.1
2016-Nov-23 20:32N 33°44' W 118°13'0 0.1
2016-Nov-23 19:29N 33°44' W 118°13'0 0.1
2016-Nov-23 18:32N 33°44' W 118°13'0 0.1
2016-Nov-23 17:29N 33°44' W 118°13'0 0.0
2016-Nov-23 16:17N 33°44' W 118°13'0 0.0
2016-Nov-23 15:23N 33°44' W 118°13'1 1.5
2016-Nov-23 14:23N 33°44' W 118°11'7 8.8
2016-Nov-23 13:33N 33°36' W 118°10'1010.3
2016-Nov-23 12:33N 33°27' W 118°06'1110.7
2016-Nov-23 11:33N 33°16' W 118°02'1110.9
2016-Nov-23 10:33N 33°06' W 117°58'1211.6
2016-Nov-23 09:33N 32°55' W 117°54'1211.7
2016-Nov-23 08:33N 32°44' W 117°50'1211.6
2016-Nov-23 07:33N 32°33' W 117°45'1111.5
2016-Nov-23 06:33N 32°22' W 117°41'  
2016-Nov-20 09:32N 31°58' W 117°45'1 0.3
2016-Nov-20 07:29N 31°57' W 117°46'0 0.3
2016-Nov-20 06:14N 31°57' W 117°46'0 0.2
2016-Nov-20 05:32N 31°57' W 117°46'0 0.1
2016-Nov-20 01:29N 31°57' W 117°46'0 0.2
2016-Nov-19 23:30N 31°57' W 117°46'0 0.3
2016-Nov-19 22:33N 31°57' W 117°47'4 0.3
2016-Nov-19 09:33N 31°55' W 117°51'1 0.4
2016-Nov-19 07:33N 31°55' W 117°51'2 0.4
2016-Nov-19 03:06N 31°55' W 117°54'0 0.6
2016-Nov-19 02:27N 31°55' W 117°54'0 0.5
2016-Nov-19 01:33N 31°55' W 117°55'0 0.4
2016-Nov-19 00:30N 31°55' W 117°55'0 0.5
2016-Nov-18 23:33N 31°55' W 117°56'5 1.8
2016-Nov-18 20:33N 31°52' W 117°50'  

Dump ship's entire track history